• Join FlightAware (Why Join?)
  • Login
  • US Flag 
Rudolph Flight #1: Arrived! 
08:06AM EST


 

Airport Tracker/Info


-or-


 

Live Flight TrackerFlight Track Log ✈ EJA312 ✈ 12-Oct-2013 ✈ KBHB - KDPA

Flight Track Log - Related Links

Times and Time Zones

All times are in EDT time to prevent confusion due to time zone crossing. See the EJA312 flight status page for this flight to view local times or setup timezone preferences in your user account.

Time Position Orientation Groundspeed Altitude Reporting Facility
EDT Latitude Longitude Course Direction KTS MPH feet Rate Location/Type
01:09PM 44.4719 -68.4656 258° West 189 217 6,900  Level Boston Center
01:11PM 44.4494 -68.6622 261° West 249 287 14,200 3,360 Climbing Boston Center
01:12PM 44.4381 -68.7647 261° West 266 306 17,100 2,640 Climbing Boston Center
01:13PM 44.4250 -68.8817 261° West 282 325 19,500 2,520 Climbing Boston Center
01:14PM 44.4119 -68.9958 261° West 300 345 22,100 2,340 Climbing Boston Center
01:15PM 44.3989 -69.1217 262° West 315 362 24,300 2,160 Climbing Boston Center
01:16PM 44.3839 -69.2503 261° West 327 376 26,500 2,100 Climbing Boston Center
01:17PM 44.3686 -69.3819 261° West 339 390 28,600 1,740 Climbing Boston Center
01:18PM 44.3553 -69.5044 261° West 346 398 30,000 1,620 Climbing Boston Center
01:19PM 44.3378 -69.6447 260° West 362 417 31,900 1,920 Climbing Boston Center
01:20PM 44.3225 -69.7847 261° West 368 423 33,900 1,020 Climbing Boston Center
01:21PM 44.3153 -69.9303 266° West 373 429 34,000 300 Climbing Boston Center
01:22PM 44.3103 -70.0900 268° West 398 458 34,500 960 Climbing Boston Center
01:23PM 44.3050 -70.2469 267° West 405 466 36,000 1,440 Climbing Boston Center
01:24PM 44.2994 -70.3981 267° West 405 466 37,500 1,440 Climbing Boston Center
01:25PM 44.2936 -70.5461 267° West 398 458 39,000 1,260 Climbing Boston Center
01:26PM 44.2875 -70.6914 267° West 393 452 40,000 480 Climbing Boston Center
01:27PM 44.2836 -70.8364 268° West 386 444 40,000  Level Boston Center
01:28PM 44.2772 -70.9933 267° West 391 450 40,000  Level Boston Center
01:29PM 44.2708 -71.1672 267° West 404 465 40,000  Level Boston Center
01:30PM 44.2622 -71.3328 266° West 417 480 40,000 -600 Level Boston Center
01:31PM 44.2553 -71.4981 267° West 430 495 38,900 -1,020 Descending Boston Center
01:32PM 44.2483 -71.6633 267° West 430 495 38,000 -480 Descending Boston Center
01:33PM 44.2389 -71.8317 266° West 430 495 38,000  Level Boston Center
01:34PM 44.2292 -71.9997 265° West 435 501 38,000  Level Boston Center
01:35PM 44.2192 -72.1533 265° West 440 506 38,000  Level Boston Center
01:36PM 44.2114 -72.3183 266° West 440 506 38,000  Level Boston Center
01:37PM 44.2031 -72.4892 266° West 446 513 38,000  Level Boston Center
01:38PM 44.1944 -72.6603 266° West 440 506 38,000  Level Boston Center
01:39PM 44.1836 -72.8281 265° West 440 506 38,000  Level Boston Center
01:40PM 44.1744 -72.9958 266° West 440 506 38,000  Level Boston Center
01:41PM 44.1631 -73.1664 265° West 445 512 38,000  Level Boston Center
01:42PM 44.1536 -73.3369 266° West 445 512 38,000  Level Boston Center
01:43PM 44.1439 -73.5075 266° West 445 512 38,000  Level Boston Center
01:44PM 44.1317 -73.6925 265° West 445 512 38,000  Level Boston Center
01:45PM 44.1214 -73.8631 265° West 440 506 38,000  Level Boston Center
01:46PM 44.1108 -74.0333 265° West 440 506 38,000  Level Boston Center
01:47PM 44.1003 -74.1775 264° West 440 506 38,000  Level Boston Center
01:48PM 44.0892 -74.3478 265° West 440 506 38,000  Level Boston Center
01:49PM 44.0758 -74.5122 264° West 440 506 38,000  Level Boston Center
01:50PM 44.0644 -74.6764 265° West 440 506 38,000  Level Boston Center
01:51PM 44.0528 -74.8464 265° West 440 506 38,000  Level Boston Center
01:52PM 44.0408 -75.0106 264° West 440 506 38,000  Level Boston Center
01:53PM 44.0267 -75.1775 263° West 440 506 38,000  Level Boston Center
01:54PM 44.0136 -75.3617 264° West 445 512 38,000  Level Boston Center
01:55PM 44.0011 -75.5256 264° West 440 506 38,000  Level Boston Center
01:56PM 43.9881 -75.6925 264° West 440 506 38,000  Level Boston Center
01:57PM 43.9728 -75.8589 263° West 440 506 38,000  Level Boston Center
01:58PM 43.9594 -76.0225 264° West 440 506 38,000  Level Boston Center
01:59PM 43.9481 -76.1892 265° West 440 506 38,000  Level Boston Center
02:00PM 43.9342 -76.3500 263° West 440 506 38,000  Level Boston Center
02:01PM 43.9222 -76.5136 264° West 440 506 38,000  Level Boston Center
02:02PM 43.9000 -76.7000 261° West 420 483 38,000  Level Toronto Center
02:03PM 43.8833 -76.8500 261° West 420 483 38,000  Level Toronto Center
02:04PM 43.8667 -77.0167 262° West 420 483 38,000  Level Toronto Center
02:05PM 43.8500 -77.1833 262° West 420 483 38,000  Level Toronto Center
02:06PM 43.8333 -77.3500 262° West 420 483 38,000  Level Toronto Center
02:07PM 43.8333 -77.5000 270° West 420 483 38,000  Level Toronto Center
02:08PM 43.8167 -77.6667 262° West 420 483 38,000  Level Toronto Center
02:09PM 43.8000 -77.8333 262° West 420 483 38,000  Level Toronto Center
02:10PM 43.7833 -77.9667 260° West 420 483 38,000  Level Toronto Center
02:11PM 43.7500 -78.1500 256° West 420 483 38,000  Level Toronto Center
02:12PM 43.7333 -78.3167 262° West 420 483 38,000  Level Toronto Center
02:13PM 43.7167 -78.4833 262° West 420 483 38,000  Level Toronto Center
02:14PM 43.7167 -78.6333 270° West 420 483 38,000  Level Toronto Center
02:15PM 43.7000 -78.7833 261° West 420 483 38,000  Level Toronto Center
02:16PM 43.6833 -78.9667 263° West 420 483 38,000  Level Toronto Center
02:17PM 43.6667 -79.1333 262° West 420 483 38,000  Level Toronto Center
02:18PM 43.6500 -79.2667 260° West 420 483 38,000  Level Toronto Center
02:19PM 43.6333 -79.4333 262° West 420 483 38,000  Level Toronto Center
02:20PM 43.6167 -79.5833 261° West 430 495 38,000  Level Toronto Center
02:21PM 43.6000 -79.7500 262° West 430 495 38,000  Level Toronto Center
02:22PM 43.5833 -79.9167 262° West 420 483 38,000  Level Toronto Center
02:23PM 43.5667 -80.0667 261° West 420 483 38,000  Level Toronto Center
02:24PM 43.5500 -80.2333 262° West 420 483 38,000  Level Toronto Center
02:25PM 43.5333 -80.4000 262° West 420 483 38,000  Level Toronto Center
02:26PM 43.5167 -80.5500 261° West 420 483 38,000  Level Toronto Center
02:27PM 43.5000 -80.7167 262° West 420 483 38,000  Level Toronto Center
02:28PM 43.4667 -80.8667 253° West 420 483 38,000  Level Toronto Center
02:29PM 43.4500 -81.0333 262° West 420 483 38,000  Level Toronto Center
02:30PM 43.4333 -81.2000 262° West 420 483 38,000  Level Toronto Center
02:31PM 43.4167 -81.3500 261° West 420 483 38,000  Level Toronto Center
02:32PM 43.4000 -81.5000 261° West 420 483 38,000  Level Toronto Center
02:33PM 43.3833 -81.6500 261° West 420 483 38,000  Level Toronto Center
02:34PM 43.3667 -81.8167 262° West 420 483 38,000  Level Toronto Center
02:35PM 43.3333 -81.9667 253° West 410 472 38,000  Level Toronto Center
02:36PM 43.3167 -82.1333 262° West 420 483 38,000  Level Toronto Center
02:37PM 43.3000 -82.2833 261° West 420 483 38,000  Level Toronto Center
02:38PM 43.2925 -82.4267 266° West 415 478 38,000  Level Cleveland Center
02:39PM 43.2686 -82.6128 260° West 415 478 38,000  Level Cleveland Center
02:40PM 43.2422 -82.7644 257° West 411 473 38,000  Level Cleveland Center
02:41PM 43.2014 -82.9103 249° West 412 474 38,000  Level Cleveland Center
02:42PM 43.1603 -83.0536 249° West 408 470 38,000  Level Cleveland Center
02:43PM 43.1200 -83.1978 249° West 407 468 38,000  Level Cleveland Center
02:44PM 43.0811 -83.3431 250° West 410 472 38,000  Level Cleveland Center
02:45PM 43.0333 -83.5144 249° West 407 468 38,000  Level Cleveland Center
02:46PM 42.9914 -83.6569 248° West 407 468 38,000 -300 Level Cleveland Center
02:47PM 42.9542 -83.8019 251° West 407 468 37,400 -780 Descending Cleveland Center
02:49PM 42.9253 -83.9494 255° West 406 467 36,400 -1,020 Descending Cleveland Center
02:50PM 42.8956 -84.0986 255° West 410 472 35,400 -1,080 Descending Cleveland Center
02:51PM 42.8592 -84.2761 254° West 409 471 34,200 -1,020 Descending Cleveland Center
02:52PM 42.8319 -84.4083 254° West 411 473 33,400 -960 Descending Cleveland Center
02:53PM 42.7944 -84.5894 254° West 412 474 32,200 -1,080 Descending Chicago Center
02:54PM 42.7631 -84.7392 254° West 412 474 31,200 -1,020 Descending Chicago Center
02:55PM 42.7303 -84.8903 254° West 416 479 30,200 -600 Descending Chicago Center
02:56PM 42.6972 -85.0450 254° West 423 487 30,000 -240 Descending Chicago Center
02:57PM 42.6642 -85.1994 254° West 425 489 29,800 -1,140 Descending Chicago Center
02:58PM 42.6247 -85.3836 254° West 422 486 27,700 -1,800 Descending Chicago Center
02:59PM 42.5917 -85.5364 254° West 421 484 26,100 -1,620 Descending Chicago Center
03:00PM 42.5572 -85.6942 254° West 429 494 24,400 -1,620 Descending Chicago Center
03:01PM 42.5225 -85.8447 253° West 420 483 22,800 -1,560 Descending Chicago Center
03:02PM 42.4908 -85.9897 254° West 402 463 21,200 -1,380 Descending Chicago Center
03:03PM 42.4631 -86.1358 256° West 401 461 20,000 -600 Descending Chicago Center
03:04PM 42.4561 -86.2886 267° West 404 465 20,000  Level Chicago Center
03:05PM 42.3931 -86.4253 238° Southwest 399 459 20,000  Level Chicago Center
03:06PM 42.2839 -86.4069 173° South 398 458 20,000  Level Chicago Center
03:07PM 42.1664 -86.3878 173° South 401 461 20,000  Level Chicago Center
03:08PM 42.0547 -86.3689 173° South 405 466 20,000  Level Chicago Center
03:09PM 41.9453 -86.3489 172° South 402 463 20,000  Level Chicago Center
03:10PM 41.8344 -86.3306 173° South 402 463 20,000  Level Chicago Center
03:11PM 41.7319 -86.3664 195° South 395 455 20,000  Level Chicago Center
03:12PM 41.6339 -86.4339 207° Southwest 397 457 20,000 -480 Level Chicago Center
03:13PM 41.5178 -86.5144 207° Southwest 396 456 19,100 -1,200 Descending Chicago Center
03:14PM 41.4250 -86.5781 207° Southwest 379 436 17,600 -1,500 Descending Chicago Center
03:15PM 41.3325 -86.6428 208° Southwest 377 434 16,000 -1,680 Descending Chicago Center
03:16PM 41.2664 -86.7661 235° Southwest 364 419 14,200 -1,680 Descending Chicago Center
03:18PM 41.2133 -86.8764 237° Southwest 356 410 12,600 -1,500 Descending Chicago Center
03:19PM 41.1881 -86.9958 254° West 354 407 11,100 -1,140 Descending Chicago Center
03:20PM 41.2008 -87.1219 278° West 347 399 10,300 -1,020 Descending Chicago Center
03:21PM 41.2117 -87.2203 278° West 281 323 9,100 -1,140 Descending Chicago Center
03:22PM 41.2239 -87.3372 278° West 268 308 8,000 -540 Descending Chicago Center
03:23PM 41.2336 -87.4364 277° West 271 312 8,000 -120 Level Chicago Center
03:24PM 41.2442 -87.5356 278° West 272 313 7,800 -600 Descending Chicago Center
03:25PM 41.2539 -87.6303 278° West 264 304 6,800 -1,260 Descending Chicago Center
03:26PM 41.2633 -87.7222 278° West 259 298 5,200 -1,380 Descending Chicago Center
03:27PM 41.2794 -87.8103 284° West 260 299 4,000 -600 Descending Chicago Center
03:28PM 41.3208 -87.8869 306° West 258 297 4,000  Level Chicago Center
03:29PM 41.3689 -87.9792 305° West 254 292 4,000  Level Chicago Center
03:30PM 41.4122 -88.0575 306° West 256 295 4,000  Level Chicago Center
03:31PM 41.4706 -88.1306 317° Northwest 264 304 4,000  Level Chicago Center
03:32PM 41.5281 -88.1914 322° Northwest 265 305 4,000  Level Chicago Center
03:33PM 41.5856 -88.2528 321° Northwest 266 306 4,000  Level Chicago Center
03:34PM 41.6428 -88.3131 322° Northwest 265 305 4,000  Level Chicago Center
03:35PM 41.6989 -88.3731 321° Northwest 263 303 4,000 -300 Level Chicago Center
03:36PM 41.7569 -88.4339 322° Northwest 263 303 3,500 -540 Descending Chicago Center
03:37PM 41.8286 -88.4756 337° Northwest 255 293 3,000 -480 Descending Chicago Center
03:38PM 41.8847 -88.4719 North 221 254 2,600 -240 Descending Chicago Center
03:39PM 41.9150 -88.4214 51° Northeast 209 241 2,600 -180 Level Chicago Center
03:40PM 41.9236 -88.3586 80° East 189 217 2,300 -540 Descending Chicago Center
03:41PM 41.9158 -88.3072 101° East 158 182 1,600 -540 Descending Chicago Center
03:42PM 41.9286 -88.2661 67° East 145 167 1,300 -300 Descending Chicago Center
03:43PM 41.9031 -88.2433 146° Southeast 144 166 1,100 -240 Descending Chicago Center